Time;durP1;ratioP1;P1;durP2;ratioP2;P2;SDS_P1;SDS_P2;PMS_P1;PMS_P2;Temp;Humidity;BMP_temperature;BMP_pressure;BME280_temperature;BME280_humidity;BME280_pressure;Samples;Min_cycle;Max_cycle;Signal;HPM_P1;HPM_P2
2023/04/23 00:01:29;;;;;;;8.18;6.93;;;;;;;;;;4964090;28;20030;-83
2023/04/23 00:03:58;;;;;;;9.13;7.47;;;;;;;;;;4969573;28;20054;-86
2023/04/23 00:06:25;;;;;;;10.70;7.22;;;;;;;;;;4993198;28;20032;-84
2023/04/23 00:08:53;;;;;;;8.63;6.88;;;;;;;;;;4967408;28;20043;-84
2023/04/23 00:11:20;;;;;;;8.35;6.72;;;;;;;;;;4971047;28;20469;-82
2023/04/23 00:13:48;;;;;;;9.77;7.60;;;;;;;;;;4978525;28;20095;-84
2023/04/23 00:16:17;;;;;;;10.50;7.15;;;;;;;;;;4965699;28;20027;-88
2023/04/23 00:18:46;;;;;;;8.30;7.07;;;;;;;;;;4985171;28;20027;-85
2023/04/23 00:21:12;;;;;;;9.85;7.78;;;;;;;;;;4969985;28;20052;-86
2023/04/23 00:23:39;;;;;;;9.40;7.47;;;;;;;;;;4961669;28;20023;-85
2023/04/23 00:26:05;;;;;;;9.75;7.90;;;;;;;;;;4977283;28;20022;-87
2023/04/23 00:28:31;;;;;;;9.50;7.07;;;;;;;;;;4981548;28;20039;-88
2023/04/23 00:30:57;;;;;;;8.55;7.32;;;;;;;;;;4982393;28;20043;-85
2023/04/23 00:33:23;;;;;;;10.88;7.28;;;;;;;;;;4965897;28;20440;-85
2023/04/23 00:35:49;;;;;;;9.05;7.07;;;;;;;;;;4969573;28;20062;-86
2023/04/23 00:38:15;;;;;;;9.95;7.28;;;;;;;;;;4984990;28;20027;-86
2023/04/23 00:40:44;;;;;;;9.45;6.50;;;;;;;;;;4969300;28;20046;-85
2023/04/23 00:43:10;;;;;;;9.00;6.65;;;;;;;;;;4980834;28;20027;-85
2023/04/23 00:45:36;;;;;;;6.80;5.65;;;;;;;;;;4983930;28;20128;-88
2023/04/23 00:48:03;;;;;;;8.18;6.10;;;;;;;;;;4965150;28;20059;-84
2023/04/23 00:50:29;;;;;;;8.70;6.47;;;;;;;;;;4966971;28;20198;-86
2023/04/23 00:52:55;;;;;;;7.93;6.28;;;;;;;;;;4969695;28;20039;-88
2023/04/23 00:55:21;;;;;;;10.65;6.32;;;;;;;;;;4971250;28;20043;-89
2023/04/23 00:57:50;;;;;;;7.32;5.35;;;;;;;;;;4989988;28;20027;-87
2023/04/23 01:00:17;;;;;;;6.43;5.55;;;;;;;;;;4985721;28;20019;-85
2023/04/23 01:02:43;;;;;;;8.52;5.80;;;;;;;;;;4970082;28;20027;-88
2023/04/23 01:05:10;;;;;;;8.50;6.07;;;;;;;;;;4972388;28;20038;-87
2023/04/23 01:07:39;;;;;;;7.45;6.05;;;12.40;99.90;;;;;;4972955;28;20130;-89
2023/04/23 01:10:05;;;;;;;6.40;5.43;;;;;;;;;;4950430;28;20043;-90
2023/04/23 01:12:31;;;;;;;8.18;5.80;;;;;;;;;;4965140;28;20041;-87
2023/04/23 01:15:00;;;;;;;10.52;5.88;;;;;;;;;;4987259;28;20019;-87
2023/04/23 01:17:26;;;;;;;8.40;6.22;;;;;;;;;;4968769;28;20031;-85
2023/04/23 01:19:52;;;;;;;7.40;6.10;;;;;;;;;;4970957;28;20041;-88
2023/04/23 01:22:19;;;;;;;8.50;6.25;;;;;;;;;;4989250;28;20023;-84
2023/04/23 01:24:45;;;;;;;8.75;6.35;;;;;;;;;;4969889;28;20472;-88
2023/04/23 01:27:11;;;;;;;9.43;6.85;;;;;;;;;;4971075;28;20023;-88
2023/04/23 01:29:38;;;;;;;8.80;6.20;;;;;;;;;;4989390;28;20028;-90
2023/04/23 01:32:04;;;;;;;7.93;6.53;;;12.30;99.90;;;;;;4968110;28;20019;-86
2023/04/23 01:34:31;;;;;;;8.80;6.60;;;12.40;99.90;;;;;;4965751;28;20039;-87
2023/04/23 01:36:58;;;;;;;9.20;6.50;;;12.40;99.90;;;;;;4983098;28;20026;-87
2023/04/23 01:39:24;;;;;;;10.23;7.32;;;;;;;;;;4953434;28;20038;-89
2023/04/23 01:41:50;;;;;;;9.73;7.53;;;;;;;;;;4986997;28;20015;-88
2023/04/23 01:44:16;;;;;;;8.98;7.40;;;12.30;99.90;;;;;;4971253;28;20027;-88
2023/04/23 01:46:42;;;;;;;8.18;6.55;;;;;;;;;;4969586;28;20016;-87
2023/04/23 01:49:08;;;;;;;9.23;6.80;;;;;;;;;;4971158;28;20020;-88
2023/04/23 01:51:34;;;;;;;8.85;6.80;;;;;;;;;;4973450;28;20042;-90
2023/04/23 01:54:00;;;;;;;9.75;6.35;;;;;;;;;;4974457;28;20265;-87
2023/04/23 01:56:27;;;;;;;8.20;6.00;;;12.20;99.90;;;;;;4983896;28;20027;-87
2023/04/23 01:58:53;;;;;;;9.07;6.45;;;;;;;;;;4972443;28;20027;-90
2023/04/23 02:01:19;;;;;;;8.45;6.32;;;;;;;;;;4973705;28;20016;-86
2023/04/23 02:03:46;;;;;;;8.57;6.40;;;;;;;;;;4970879;28;20019;-87
2023/04/23 02:06:12;;;;;;;9.73;6.25;;;;;;;;;;4987188;28;20038;-87
2023/04/23 02:08:38;;;;;;;7.57;5.70;;;;;;;;;;4987793;28;20043;-88
2023/04/23 02:11:08;;;;;;;7.78;5.57;;;;;;;;;;4973390;28;20118;-86
2023/04/23 02:13:34;;;;;;;9.27;5.60;;;;;;;;;;4979766;28;20034;-89
2023/04/23 02:16:00;;;;;;;7.80;5.45;;;;;;;;;;4973433;28;20023;-87
2023/04/23 02:18:26;;;;;;;7.15;4.82;;;;;;;;;;4984134;28;20008;-89
2023/04/23 02:20:53;;;;;;;7.65;5.68;;;12.20;99.90;;;;;;4974998;28;20027;-89
2023/04/23 02:23:19;;;;;;;8.50;5.45;;;;;;;;;;4974841;28;20036;-88
2023/04/23 02:25:45;;;;;;;7.85;5.70;;;;;;;;;;4974284;28;20023;-88
2023/04/23 02:28:12;;;;;;;7.32;5.78;;;;;;;;;;4975677;28;20020;-90
2023/04/23 02:30:44;;;;;;;6.65;5.13;;;;;;;;;;4976155;28;20036;-86
2023/04/23 02:33:10;;;;;;;6.13;5.25;;;;;;;;;;4970133;28;20066;-86
2023/04/23 02:35:36;;;;;;;7.22;5.75;;;;;;;;;;4971767;28;20096;-86
2023/04/23 02:38:01;;;;;;;6.53;5.40;;;12.20;99.90;;;;;;4988587;28;20853;-88
2023/04/23 02:40:27;;;;;;;6.75;5.35;;;;;;;;;;4967495;28;20034;-88
2023/04/23 02:42:53;;;;;;;8.93;5.10;;;;;;;;;;4967757;28;20039;-88
2023/04/23 02:45:19;;;;;;;6.97;5.05;;;;;;;;;;4970661;28;20035;-88
2023/04/23 02:47:45;;;;;;;8.02;5.35;;;;;;;;;;4975329;28;20178;-88
2023/04/23 02:50:11;;;;;;;7.03;5.07;;;;;;;;;;4965115;28;20165;-87
2023/04/23 02:52:37;;;;;;;9.68;4.93;;;;;;;;;;4971620;28;20027;-84
2023/04/23 02:55:04;;;;;;;6.43;5.13;;;;;;;;;;4966935;28;20055;-85
2023/04/23 02:57:30;;;;;;;6.53;5.28;;;;;;;;;;4979307;28;20019;-88
2023/04/23 02:59:56;;;;;;;8.35;5.65;;;;;;;;;;4966560;28;20026;-87
2023/04/23 03:02:22;;;;;;;8.73;5.03;;;;;;;;;;4964349;28;20040;-85
2023/04/23 03:04:48;;;;;;;7.70;5.63;;;;;;;;;;4978694;28;20042;-86
2023/04/23 03:07:16;;;;;;;6.82;5.18;;;;;;;;;;4961934;28;20027;-84
2023/04/23 03:09:42;;;;;;;7.78;5.32;;;;;;;;;;4960363;28;20123;-87
2023/04/23 03:12:08;;;;;;;8.98;5.80;;;;;;;;;;4973828;28;20082;-85
2023/04/23 03:14:34;;;;;;;8.05;6.15;;;;;;;;;;4958926;28;20058;-85
2023/04/23 03:17:00;;;;;;;8.88;6.57;;;;;;;;;;4966922;28;20261;-85
2023/04/23 03:19:26;;;;;;;9.20;6.85;;;;;;;;;;4975112;28;20031;-85
2023/04/23 03:21:52;;;;;;;9.93;7.38;;;;;;;;;;4981189;28;20057;-83
2023/04/23 03:24:18;;;;;;;10.15;6.93;;;;;;;;;;4961409;28;20035;-85
2023/04/23 03:26:44;;;;;;;10.43;6.03;;;;;;;;;;4972668;28;20031;-82
2023/04/23 03:29:10;;;;;;;8.48;6.30;;;;;;;;;;4972951;28;20517;-85
2023/04/23 03:31:36;;;;;;;9.02;6.70;;;;;;;;;;4978659;28;20045;-87
2023/04/23 03:34:02;;;;;;;8.98;6.50;;;;;;;;;;4976287;28;20020;-90
2023/04/23 03:36:28;;;;;;;8.73;6.47;;;;;;;;;;4985860;28;20034;-83
2023/04/23 03:38:54;;;;;;;9.52;6.32;;;;;;;;;;4982298;28;20060;-86
2023/04/23 03:41:20;;;;;;;8.73;6.63;;;;;;;;;;4969062;28;20031;-82
2023/04/23 03:43:46;;;;;;;10.32;7.20;;;;;;;;;;4973055;28;20019;-84
2023/04/23 03:46:12;;;;;;;8.57;6.65;;;;;;;;;;4968391;28;20038;-87
2023/04/23 03:48:38;;;;;;;10.00;7.22;;;;;;;;;;4988374;28;20035;-87
2023/04/23 03:51:04;;;;;;;10.75;7.20;;;;;;;;;;4974554;28;20055;-85
2023/04/23 03:53:30;;;;;;;9.60;7.40;;;;;;;;;;4989511;28;20050;-88
2023/04/23 03:55:56;;;;;;;9.40;7.43;;;;;;;;;;4986673;28;20022;-85
2023/04/23 03:58:22;;;;;;;9.68;7.82;;;;;;;;;;4985425;28;20031;-85
2023/04/23 04:00:48;;;;;;;11.85;7.97;;;;;;;;;;4967712;28;20016;-89
2023/04/23 04:03:14;;;;;;;11.27;7.22;;;;;;;;;;4984584;28;20093;-87
2023/04/23 04:05:40;;;;;;;11.63;7.70;;;;;;;;;;4990980;23;20396;-81
2023/04/23 04:08:06;;;;;;;9.52;7.60;;;;;;;;;;4995223;28;20849;-80
2023/04/23 04:10:33;;;;;;;10.15;7.57;;;11.50;99.90;;;;;;4981825;28;20404;-80
2023/04/23 04:12:59;;;;;;;9.95;7.07;;;11.60;99.90;;;;;;4990786;28;20157;-79
2023/04/23 04:15:25;;;;;;;9.73;6.75;;;;;;;;;;4996058;28;20049;-80
2023/04/23 04:17:51;;;;;;;8.75;6.93;;;11.60;99.90;;;;;;4991750;28;20022;-80
2023/04/23 04:20:17;;;;;;;8.57;6.30;;;;;;;;;;4994879;28;20029;-79
2023/04/23 04:22:43;;;;;;;8.60;6.45;;;11.60;99.90;;;;;;4997632;28;20033;-80
2023/04/23 04:25:09;;;;;;;10.68;7.70;;;;;;;;;;4997305;28;20030;-80
2023/04/23 04:27:35;;;;;;;10.15;7.68;;;11.60;99.90;;;;;;4991938;28;20128;-80
2023/04/23 04:30:01;;;;;;;9.13;6.90;;;11.60;99.90;;;;;;4995737;28;20485;-78
2023/04/23 04:32:28;;;;;;;11.45;8.48;;;11.60;99.90;;;;;;4995352;28;20022;-80
2023/04/23 04:34:54;;;;;;;9.82;7.88;;;;;;;;;;4999063;28;20030;-80
2023/04/23 04:37:21;;;;;;;11.52;8.25;;;11.60;99.90;;;;;;4996458;28;20026;-80
2023/04/23 04:39:47;;;;;;;11.52;8.20;;;;;;;;;;5005307;28;20031;-80
2023/04/23 04:42:13;;;;;;;10.07;8.20;;;11.60;99.90;;;;;;5009906;28;20038;-80
2023/04/23 04:44:39;;;;;;;10.90;8.25;;;;;;;;;;5009097;28;20085;-80
2023/04/23 04:47:08;;;;;;;10.38;8.00;;;;;;;;;;5009680;28;20046;-79
2023/04/23 04:49:34;;;;;;;10.82;7.72;;;11.60;99.90;;;;;;4997566;28;20030;-80
2023/04/23 04:52:00;;;;;;;9.98;7.68;;;11.60;99.90;;;;;;4993203;28;20033;-80
2023/04/23 04:54:26;;;;;;;12.32;8.07;;;;;;;;;;4992576;28;20022;-80
2023/04/23 04:56:52;;;;;;;10.60;7.82;;;;;;;;;;4999202;28;20234;-80
2023/04/23 04:59:18;;;;;;;10.85;7.68;;;;;;;;;;4996400;28;20134;-80
2023/04/23 05:01:45;;;;;;;8.73;6.40;;;;;;;;;;5004612;28;20041;-79
2023/04/23 05:04:11;;;;;;;9.48;6.78;;;;;;;;;;4991468;28;20022;-79
2023/04/23 05:06:37;;;;;;;10.30;6.78;;;;;;;;;;5000141;28;20095;-79
2023/04/23 05:09:03;;;;;;;9.80;6.93;;;;;;;;;;5005175;28;20029;-80
2023/04/23 05:11:30;;;;;;;8.90;6.68;;;;;;;;;;4996649;28;20089;-81
2023/04/23 05:13:56;;;;;;;9.73;6.97;;;;;;;;;;4994845;28;20022;-80
2023/04/23 05:16:23;;;;;;;8.45;6.80;;;;;;;;;;4987663;28;20440;-81
2023/04/23 05:18:49;;;;;;;9.38;6.00;;;;;;;;;;4986753;28;20089;-81
2023/04/23 05:21:15;;;;;;;8.63;6.88;;;;;;;;;;4991241;28;20026;-80
2023/04/23 05:23:41;;;;;;;12.48;7.05;;;;;;;;;;4986897;28;20373;-77
2023/04/23 05:26:07;;;;;;;11.07;7.05;;;;;;;;;;4992248;28;20127;-80
2023/04/23 05:28:33;;;;;;;10.15;6.82;;;;;;;;;;5003484;28;20102;-79
2023/04/23 05:30:59;;;;;;;10.00;6.97;;;;;;;;;;5001254;28;20033;-80
2023/04/23 05:33:26;;;;;;;12.30;6.40;;;;;;;;;;5001755;28;20023;-80
2023/04/23 05:35:52;;;;;;;13.95;6.80;;;;;;;;;;4985891;28;20054;-78
2023/04/23 05:38:18;;;;;;;8.98;6.78;;;;;;;;;;4995432;28;20046;-81
2023/04/23 05:40:44;;;;;;;9.20;6.07;;;;;;;;;;4999435;28;20039;-80
2023/04/23 05:43:10;;;;;;;7.28;5.80;;;;;;;;;;4989877;28;20049;-80
2023/04/23 05:45:36;;;;;;;9.60;6.22;;;;;;;;;;4993527;28;20030;-81
2023/04/23 05:48:02;;;;;;;8.30;6.00;;;;;;;;;;4987048;28;20110;-80
2023/04/23 05:50:29;;;;;;;9.25;5.95;;;;;;;;;;4992305;28;20654;-80
2023/04/23 05:52:55;;;;;;;9.23;5.90;;;;;;;;;;5001149;28;20030;-80
2023/04/23 05:55:22;;;;;;;8.98;6.13;;;;;;;;;;4992130;28;20089;-80
2023/04/23 05:57:48;;;;;;;7.65;5.70;;;;;;;;;;4990674;28;20118;-81
2023/04/23 06:00:15;;;;;;;8.13;5.45;;;11.70;99.90;;;;;;4989654;28;20043;-80
2023/04/23 06:02:41;;;;;;;9.45;5.82;;;11.70;99.90;;;;;;4985334;28;20404;-80
2023/04/23 06:05:07;;;;;;;10.15;6.00;;;;;;;;;;4991577;28;20034;-81
2023/04/23 06:07:33;;;;;;;10.68;6.43;;;;;;;;;;4993372;28;20035;-80
2023/04/23 06:10:00;;;;;;;12.27;6.05;;;;;;;;;;4999724;28;20034;-80
2023/04/23 06:12:26;;;;;;;9.75;6.50;;;;;;;;;;4990470;28;20580;-80
2023/04/23 06:14:52;;;;;;;7.10;5.22;;;11.80;99.90;;;;;;5001697;28;20026;-79
2023/04/23 06:17:18;;;;;;;7.82;5.45;;;;;;;;;;4998786;28;20053;-80
2023/04/23 06:19:44;;;;;;;8.45;5.38;;;;;;;;;;5008936;28;20006;-80
2023/04/23 06:22:10;;;;;;;8.77;6.00;;;;;;;;;;5023091;28;20036;-80
2023/04/23 06:24:36;;;;;;;11.60;6.00;;;15.90;99.90;;;;;;5005053;28;20074;-79
2023/04/23 06:27:03;;;;;;;8.63;6.05;;;;;;;;;;5003222;28;20392;-81
2023/04/23 06:29:29;;;;;;;10.23;6.03;;;;;;;;;;4990946;28;20051;-81
2023/04/23 06:31:56;;;;;;;10.95;6.05;;;;;;;;;;5000556;28;20026;-80
2023/04/23 06:34:22;;;;;;;8.43;5.65;;;;;;;;;;5002880;28;20503;-79
2023/04/23 06:36:49;;;;;;;9.82;5.30;;;11.90;99.90;;;;;;4997457;28;20022;-80
2023/04/23 06:39:15;;;;;;;8.80;5.50;;;;;;;;;;5006493;28;20049;-79
2023/04/23 06:41:41;;;;;;;6.55;5.13;;;;;;;;;;5008319;28;20030;-80
2023/04/23 06:44:07;;;;;;;10.27;5.47;;;;;;;;;;5009210;28;20015;-81
2023/04/23 06:46:33;;;;;;;10.27;5.57;;;;;;;;;;4998490;28;20042;-80
2023/04/23 06:48:59;;;;;;;7.85;5.78;;;;;;;;;;5004755;28;20034;-80
2023/04/23 06:51:26;;;;;;;8.07;5.93;;;;;;;;;;5002006;28;20041;-78
2023/04/23 06:53:52;;;;;;;7.38;5.43;;;;;;;;;;5007878;28;20010;-81
2023/04/23 06:56:18;;;;;;;8.48;5.00;;;;;;;;;;5012666;28;20014;-79
2023/04/23 06:58:44;;;;;;;7.82;5.47;;;;;;;;;;5003423;28;20015;-80
2023/04/23 07:01:10;;;;;;;6.93;5.28;;;;;;;;;;4999430;28;20043;-79
2023/04/23 07:03:36;;;;;;;7.65;5.57;;;;;;;;;;5005561;28;20086;-80
2023/04/23 07:06:02;;;;;;;6.40;4.95;;;;;;;;;;5005096;28;20019;-80
2023/04/23 07:08:28;;;;;;;8.32;5.05;;;;;;;;;;5011538;28;20237;-81
2023/04/23 07:10:54;;;;;;;7.55;5.32;;;;;;;;;;5012783;28;20086;-80
2023/04/23 07:13:20;;;;;;;8.25;5.97;;;;;;;;;;5005190;28;20023;-80
2023/04/23 07:15:47;;;;;;;8.05;5.30;;;;;;;;;;5007528;28;20037;-81
2023/04/23 07:18:13;;;;;;;9.15;5.95;;;;;;;;;;5010664;28;20011;-81
2023/04/23 07:20:39;;;;;;;10.60;5.85;;;;;;;;;;5011868;28;20030;-80
2023/04/23 07:23:05;;;;;;;8.90;5.30;;;;;;;;;;5007855;28;20015;-80
2023/04/23 07:25:31;;;;;;;6.38;5.00;;;;;;;;;;5005038;28;20044;-80
2023/04/23 07:27:57;;;;;;;6.60;5.10;;;;;;;;;;5004126;28;20041;-80
2023/04/23 07:30:25;;;;;;;7.45;5.70;;;12.30;99.90;;;;;;5004750;28;20046;-79
2023/04/23 07:32:51;;;;;;;8.70;5.60;;;;;;;;;;5003582;28;20030;-80
2023/04/23 07:35:17;;;;;;;11.00;5.05;;;;;;;;;;4999738;28;20061;-80
2023/04/23 07:37:43;;;;;;;8.02;5.47;;;;;;;;;;5007921;28;20014;-80
2023/04/23 07:40:09;;;;;;;7.47;4.78;;;;;;;;;;5004413;28;20031;-81
2023/04/23 07:42:35;;;;;;;7.00;4.50;;;;;;;;;;5004935;28;20003;-81
2023/04/23 07:45:01;;;;;;;7.85;4.35;;;;;;;;;;5013250;28;20034;-80
2023/04/23 07:47:27;;;;;;;8.48;4.18;;;;;;;;;;5009358;28;20023;-81
2023/04/23 07:49:53;;;;;;;5.72;4.10;;;;;;;;;;4996051;28;20031;-82
2023/04/23 07:52:19;;;;;;;10.00;4.40;;;;;;;;;;5002425;28;20027;-80
2023/04/23 07:54:45;;;;;;;6.30;4.20;;;;;;;;;;5008657;28;20070;-80
2023/04/23 07:57:11;;;;;;;7.00;3.65;;;;;;;;;;5013921;28;20086;-80
2023/04/23 07:59:38;;;;;;;5.82;3.88;;;;;;;;;;5007304;28;20039;-80
2023/04/23 08:02:04;;;;;;;7.88;4.15;;;;;;;;;;5011973;28;20045;-79
2023/04/23 08:04:30;;;;;;;6.10;3.95;;;;;;;;;;4997579;28;20019;-80
2023/04/23 08:06:57;;;;;;;9.32;4.35;;;;;;;;;;5014686;28;20018;-79
2023/04/23 08:09:23;;;;;;;7.28;4.25;;;;;;;;;;5016627;28;20077;-80
2023/04/23 08:11:49;;;;;;;7.80;3.90;;;;;;;;;;5002598;28;20033;-79
2023/04/23 08:14:15;;;;;;;8.23;4.45;;;;;;;;;;5012280;28;20014;-80
2023/04/23 08:16:41;;;;;;;7.57;3.70;;;;;;;;;;5011217;28;20810;-81
2023/04/23 08:19:07;;;;;;;8.15;3.88;;;;;;;;;;5006388;28;20011;-82
2023/04/23 08:21:33;;;;;;;8.35;4.28;;;;;;;;;;5015724;28;20014;-79
2023/04/23 08:24:01;;;;;;;7.10;4.07;;;;;;;;;;5014682;28;20011;-80
2023/04/23 08:29:04;;;;;;;8.70;4.03;;;;;;;;;;4332493;26;20043;-79
2023/04/23 08:31:30;;;;;;;6.40;3.92;;;;;;;;;;4997214;28;20038;-81
2023/04/23 08:33:56;;;;;;;7.68;3.58;;;;;;;;;;4998963;28;20357;-79
2023/04/23 08:36:22;;;;;;;6.40;3.55;;;;;;;;;;4995744;28;20023;-80
2023/04/23 08:38:48;;;;;;;7.88;4.07;;;;;;;;;;4983636;28;20034;-79
2023/04/23 08:41:14;;;;;;;5.20;3.40;;;;;;;;;;4981994;28;20012;-79
2023/04/23 08:43:44;;;;;;;3.97;2.78;;;;;;;;;;4975733;28;20024;-80
2023/04/23 08:46:12;;;;;;;6.90;3.10;;;;;;;;;;4982921;28;20042;-80
2023/04/23 08:48:40;;;;;;;4.30;3.05;;;;;;;;;;4988975;28;20011;-81
2023/04/23 08:51:08;;;;;;;6.05;2.95;;;13.60;99.90;;;;;;4990141;28;20047;-80
2023/04/23 08:53:35;;;;;;;5.18;3.00;;;;;;;;;;4979504;28;20035;-80
2023/04/23 08:56:02;;;;;;;6.90;3.00;;;;;;;;;;4979152;28;20011;-79
2023/04/23 08:58:29;;;;;;;6.30;2.90;;;13.70;99.90;;;;;;4975594;28;20023;-82
2023/04/23 09:00:56;;;;;;;5.63;2.97;;;;;;;;;;4984534;28;20026;-80
2023/04/23 09:03:23;;;;;;;5.55;3.17;;;;;;;;;;4978756;28;20015;-82
2023/04/23 09:05:54;;;;;;;6.28;3.33;;;;;;;;;;4981621;28;20026;-80
2023/04/23 09:08:20;;;;;;;5.10;3.42;;;;;;;;;;4975489;28;20027;-81
2023/04/23 09:10:47;;;;;;;4.38;3.30;;;;;;;;;;4978179;28;20055;-81
2023/04/23 09:13:13;;;;;;;4.43;3.05;;;;;;;;;;4981893;28;20037;-80
2023/04/23 09:15:44;;;;;;;7.22;3.55;;;14.20;99.90;;;;;;4976156;28;20039;-80
2023/04/23 09:18:10;;;;;;;5.30;3.45;;;14.20;99.90;;;;;;4985124;28;20082;-80
2023/04/23 09:20:36;;;;;;;8.45;3.38;;;;;;;;;;4979393;28;20014;-80
2023/04/23 09:23:06;;;;;;;7.07;4.05;;;14.50;99.90;;;;;;4975711;28;20111;-79
2023/04/23 09:25:33;;;;;;;6.85;3.38;;;;;;;;;;4966855;28;20062;-83
2023/04/23 09:28:00;;;;;;;5.53;2.72;;;14.80;99.90;;;;;;4960748;28;20046;-81
2023/04/23 09:30:26;;;;;;;5.70;2.55;;;;;;;;;;4975017;28;20070;-81
2023/04/23 09:32:52;;;;;;;6.75;2.70;;;;;;;;;;4971462;28;20039;-81
2023/04/23 09:35:19;;;;;;;5.00;2.95;;;;;;;;;;4987003;28;20037;-80
2023/04/23 09:37:50;;;;;;;6.32;2.78;;;14.80;99.90;;;;;;4975142;28;20036;-81
2023/04/23 09:40:18;;;;;;;6.78;2.92;;;14.90;99.90;;;;;;4978105;28;20031;-84
2023/04/23 09:42:53;;;;;;;4.03;2.50;;;14.90;99.90;;;;;;4969540;28;20053;-83
2023/04/23 09:45:19;;;;;;;5.60;2.63;;;15.10;99.90;;;;;;4978405;28;20059;-83
2023/04/23 09:47:56;;;;;;;5.35;2.40;;;15.10;99.90;;;;;;4952933;28;20034;-84
2023/04/23 09:50:37;;;;;;;6.60;2.40;;;15.20;99.90;;;;;;4985731;28;20115;-84
2023/04/23 09:53:04;;;;;;;4.72;2.38;;;;;;;;;;4964209;28;20031;-84
2023/04/23 09:55:37;;;;;;;5.07;2.60;;;;;;;;;;4980551;28;20031;-84
2023/04/23 09:58:11;;;;;;;4.45;2.60;;;15.40;99.90;;;;;;4975597;28;20174;-83
2023/04/23 10:00:37;;;;;;;5.95;2.45;;;;;;;;;;4987565;28;20091;-83
2023/04/23 10:03:05;;;;;;;4.05;2.65;;;15.30;99.90;;;;;;4975159;28;20531;-81
2023/04/23 10:08:06;;;;;;;6.30;3.13;;;;;;;;;;4998943;28;20058;-89
2023/04/23 10:10:33;;;;;;;3.58;2.22;;;15.30;99.90;;;;;;5006716;28;20118;-86
2023/04/23 10:13:00;;;;;;;5.15;2.70;;;15.60;99.90;;;;;;5002494;28;20038;-87
2023/04/23 10:15:26;;;;;;;3.17;1.92;;;15.70;99.90;;;;;;4999915;28;20026;-88
2023/04/23 10:17:53;;;;;;;4.30;2.20;;;15.90;99.90;;;;;;4988924;28;20038;-86
2023/04/23 10:20:24;;;;;;;3.33;2.20;;;15.90;99.90;;;;;;4985221;28;20026;-87
2023/04/23 10:22:52;;;;;;;4.13;2.35;;;16.00;99.90;;;;;;4983379;28;20484;-84
2023/04/23 10:25:20;;;;;;;3.72;2.10;;;16.00;99.90;;;;;;4984521;28;20034;-84
2023/04/23 10:27:48;;;;;;;5.90;2.38;;;16.10;99.90;;;;;;4994089;28;20509;-85
2023/04/23 10:30:14;;;;;;;6.85;1.95;;;16.10;99.90;;;;;;4998097;28;20102;-86
2023/04/23 10:32:40;;;;;;;3.10;2.10;;;16.20;99.90;;;;;;4987208;28;20027;-88
2023/04/23 10:35:08;;;;;;;3.58;1.73;;;16.80;99.90;;;;;;4986433;28;20034;-84
2023/04/23 10:37:34;;;;;;;3.88;2.17;;;;;;;;;;4960541;28;20051;-83
2023/04/23 10:40:15;;;;;;;4.63;2.45;;;17.80;99.90;;;;;;4984260;28;20081;-89
2023/04/23 10:42:42;;;;;;;;;;;17.80;99.90;;;;;;4987071;28;20526;-86
2023/04/23 10:45:15;;;;;;;3.00;1.80;;;17.80;99.90;;;;;;4981603;28;19917;-87
2023/04/23 10:47:43;;;;;;;3.40;1.65;;;17.80;99.90;;;;;;4990979;28;20031;-85
2023/04/23 10:50:21;;;;;;;2.80;2.00;;;17.80;99.90;;;;;;4984719;28;20567;-85
2023/04/23 10:52:50;;;;;;;3.42;2.38;;;;;;;;;;4977202;28;20507;-82
2023/04/23 10:55:21;;;;;;;3.97;1.98;;;17.50;99.90;;;;;;4978403;28;20030;-82
2023/04/23 10:58:07;;;;;;;3.47;2.13;;;17.40;99.90;;;;;;4977997;28;20163;-87
2023/04/23 11:01:03;;;;;;;5.28;1.70;;;17.40;99.90;;;;;;4993402;28;20030;-84
2023/04/23 11:03:38;;;;;;;6.25;2.40;;;17.40;99.90;;;;;;4983078;28;20039;-86
2023/04/23 11:06:27;;;;;;;4.50;1.75;;;17.70;99.90;;;;;;4980937;28;20038;-86
2023/04/23 11:08:55;;;;;;;6.05;2.08;;;;;;;;;;4979496;28;20054;-88
2023/04/23 11:11:40;;;;;;;4.22;1.77;;;18.20;99.90;;;;;;4984171;28;20034;-84
2023/04/23 11:14:14;;;;;;;3.35;1.40;;;18.30;99.90;;;;;;4988269;28;20051;-87
2023/04/23 11:16:40;;;;;;;3.13;1.60;;;;;;;;;;4989158;28;20575;-85
2023/04/23 11:19:11;;;;;;;2.55;1.75;;;18.50;99.90;;;;;;4986271;28;20027;-85
2023/04/23 11:21:59;;;;;;;3.45;1.80;;;18.50;99.90;;;;;;4990311;28;20103;-86
2023/04/23 11:24:40;;;;;;;2.40;1.27;;;18.40;99.90;;;;;;4982008;28;20027;-87
2023/04/23 11:27:16;;;;;;;2.33;1.50;;;18.70;99.90;;;;;;4983979;28;20253;-87
2023/04/23 11:29:43;;;;;;;3.08;1.42;;;18.60;99.90;;;;;;4997750;28;20034;-88
2023/04/23 11:32:12;;;;;;;2.28;1.45;;;18.60;99.90;;;;;;4993743;28;20023;-87
2023/04/23 11:34:39;;;;;;;4.32;1.42;;;18.40;99.90;;;;;;5000909;28;20015;-88
2023/04/23 11:37:05;;;;;;;1.92;1.30;;;;;;;;;;4990747;28;20043;-87
2023/04/23 11:39:31;;;;;;;7.18;4.47;;;18.10;99.90;;;;;;5002939;28;20034;-87
2023/04/23 11:42:01;;;;;;;13.20;9.52;;;;;;;;;;5007624;28;20023;-88
2023/04/23 11:44:27;;;;;;;2.60;1.40;;;;;;;;;;4990494;28;20022;-89
2023/04/23 11:46:53;;;;;;;2.78;1.17;;;;;;;;;;4999540;28;20030;-88
2023/04/23 11:49:20;;;;;;;2.25;1.15;;;;;;;;;;4993990;28;20114;-88
2023/04/23 11:51:46;;;;;;;2.13;1.20;;;;;;;;;;4981283;28;20026;-86
2023/04/23 11:54:13;;;;;;;2.78;1.45;;;;;;;;;;4985003;28;20026;-86
2023/04/23 11:56:39;;;;;;;3.22;1.35;;;;;;;;;;4982450;28;20037;-86
2023/04/23 11:59:05;;;;;;;5.00;1.50;;;;;;;;;;4988370;28;20038;-88
2023/04/23 12:01:44;;;;;;;3.67;1.25;;;19.30;96.70;;;;;;4988871;28;20086;-84
2023/04/23 12:04:19;;;;;;;2.97;1.20;;;19.50;96.30;;;;;;4985473;28;20063;-83
2023/04/23 12:06:46;;;;;;;2.33;1.20;;;19.40;96.20;;;;;;4986330;28;20034;-85
2023/04/23 12:09:13;;;;;;;1.85;1.15;;;19.20;96.40;;;;;;4990559;28;20038;-86
2023/04/23 12:11:40;;;;;;;4.82;1.15;;;19.10;96.60;;;;;;4985812;28;20136;-85
2023/04/23 12:14:10;;;;;;;2.58;1.10;;;19.10;96.50;;;;;;4980871;28;20029;-86
2023/04/23 12:16:36;;;;;;;2.40;1.30;;;;;;;;;;4987255;28;20026;-87
2023/04/23 12:19:02;;;;;;;3.22;1.20;;;;;;;;;;4983469;28;20306;-85
2023/04/23 12:21:28;;;;;;;5.30;1.42;;;;;;;;;;4986443;28;20035;-86
2023/04/23 12:23:55;;;;;;;2.80;1.17;;;18.80;96.60;;;;;;4986069;28;20039;-84
2023/04/23 12:26:23;;;;;;;2.83;1.13;;;;;;;;;;4985727;28;20052;-87
2023/04/23 12:28:52;;;;;;;2.58;1.35;;;;;;;;;;4988749;28;20063;-86
2023/04/23 12:31:23;;;;;;;3.10;1.23;;;18.80;96.40;;;;;;4984240;28;20023;-84
2023/04/23 12:34:03;;;;;;;3.28;1.20;;;19.00;96.40;;;;;;4981614;28;20058;-83
2023/04/23 12:36:32;;;;;;;3.70;1.40;;;19.50;96.10;;;;;;4994035;28;20366;-84
2023/04/23 12:39:18;;;;;;;2.93;1.23;;;19.30;96.30;;;;;;4982125;28;20050;-86
2023/04/23 12:41:43;;;;;;;4.13;1.15;;;19.70;95.30;;;;;;4981769;28;20313;-86
2023/04/23 12:44:09;;;;;;;1.98;1.10;;;19.80;94.60;;;;;;4981085;28;20027;-88
2023/04/23 12:46:35;;;;;;;1.77;1.10;;;19.70;94.40;;;;;;4985445;28;20038;-88
2023/04/23 12:49:01;;;;;;;2.90;1.10;;;;;;;;;;4987447;28;20333;-86
2023/04/23 12:51:27;;;;;;;2.08;1.20;;;;;;;;;;4980175;28;20114;-87
2023/04/23 12:53:53;;;;;;;2.65;1.20;;;;;;;;;;4982096;28;20038;-90
2023/04/23 12:56:19;;;;;;;1.95;1.20;;;19.30;95.30;;;;;;4983561;28;20064;-86
2023/04/23 12:58:45;;;;;;;2.28;1.13;;;;;;;;;;4980420;28;20060;-88
2023/04/23 13:01:13;;;;;;;2.95;1.38;;;;;;;;;;4980553;28;20067;-88
2023/04/23 13:03:39;;;;;;;1.67;1.02;;;;;;;;;;4981466;28;20058;-85
2023/04/23 13:06:06;;;;;;;3.65;1.30;;;19.30;94.80;;;;;;4986071;28;20038;-87
2023/04/23 13:08:32;;;;;;;1.83;1.17;;;;;;;;;;4980215;28;20042;-89
2023/04/23 13:10:59;;;;;;;1.25;0.80;;;;;;;;;;4979375;28;20035;-86
2023/04/23 13:13:26;;;;;;;4.47;1.20;;;19.40;95.00;;;;;;4980294;28;20058;-86
2023/04/23 13:15:52;;;;;;;2.20;1.05;;;;;;;;;;4980382;28;20062;-87
2023/04/23 13:18:18;;;;;;;3.10;1.13;;;19.20;95.30;;;;;;4996909;28;20098;-85
2023/04/23 13:20:44;;;;;;;2.42;1.00;;;19.00;95.10;;;;;;4977223;28;20553;-87
2023/04/23 13:23:11;;;;;;;1.55;0.90;;;19.00;95.10;;;;;;4986704;28;20050;-88
2023/04/23 13:25:37;;;;;;;2.33;1.15;;;;;;;;;;4984110;28;20035;-87
2023/04/23 13:28:03;;;;;;;1.90;1.00;;;;;;;;;;4989777;28;20412;-88
2023/04/23 13:30:29;;;;;;;1.25;0.80;;;;;;;;;;4996097;28;20038;-86
2023/04/23 13:32:56;;;;;;;2.67;1.10;;;;;;;;;;4994570;28;20408;-87
2023/04/23 13:35:22;;;;;;;5.28;1.27;;;;;;;;;;4984502;28;20093;-88
2023/04/23 13:37:48;;;;;;;3.38;1.23;;;;;;;;;;4977991;28;20398;-85
2023/04/23 13:40:14;;;;;;;1.70;1.00;;;18.80;96.70;;;;;;4981456;28;20050;-85
2023/04/23 13:42:40;;;;;;;2.70;1.20;;;;;;;;;;4983807;28;20062;-89
2023/04/23 13:45:06;;;;;;;1.92;1.17;;;;;;;;;;4988262;28;20039;-88
2023/04/23 13:47:33;;;;;;;2.45;1.20;;;;;;;;;;4982668;28;20034;-87
2023/04/23 13:50:02;;;;;;;1.45;0.98;;;;;;;;;;4985981;28;20032;-87
2023/04/23 13:52:28;;;;;;;1.80;0.82;;;;;;;;;;4967630;28;20233;-87
2023/04/23 13:54:55;;;;;;;0.88;0.80;;;;;;;;;;4975888;28;20047;-86
2023/04/23 13:57:22;;;;;;;2.35;0.82;;;;;;;;;;4998711;28;20054;-86
2023/04/23 13:59:48;;;;;;;2.45;0.98;;;;;;;;;;4968191;28;20061;-88
2023/04/23 14:02:15;;;;;;;1.75;1.00;;;;;;;;;;4978763;28;20054;-87
2023/04/23 14:04:41;;;;;;;4.60;1.00;;;;;;;;;;4979216;28;20085;-87
2023/04/23 14:07:07;;;;;;;1.83;0.80;;;;;;;;;;4981023;28;20042;-86
2023/04/23 14:09:33;;;;;;;3.25;1.88;;;;;;;;;;4980088;28;20523;-86
2023/04/23 14:12:00;;;;;;;4.57;2.13;;;;;;;;;;4983312;28;20041;-88
2023/04/23 14:14:26;;;;;;;3.03;1.52;;;;;;;;;;4986986;28;20080;-88